createdAt,value
2018-06-19T00:02:40.854Z,91.56
2018-06-19T00:05:44.067Z,91.63
2018-06-19T00:08:47.480Z,91.05
2018-06-19T00:11:50.681Z,90.99
2018-06-19T00:14:53.837Z,90.93
2018-06-19T00:18:02.129Z,91.10
2018-06-19T00:21:13.026Z,90.71
2018-06-19T00:24:16.363Z,90.72
2018-06-19T00:27:19.591Z,90.24
2018-06-19T00:30:22.758Z,90.62
2018-06-19T00:33:25.974Z,90.34
2018-06-19T00:36:29.126Z,89.63
2018-06-19T00:39:32.245Z,90.28
2018-06-19T00:42:35.356Z,90.42
2018-06-19T00:45:38.396Z,91.23
2018-06-19T00:48:41.619Z,90.96
2018-06-19T00:51:44.832Z,91.00
2018-06-19T00:54:47.910Z,91.53
2018-06-19T00:57:51.024Z,91.57
2018-06-19T01:00:54.106Z,91.95
2018-06-19T01:03:57.313Z,92.25
2018-06-19T01:07:00.399Z,91.89
2018-06-19T01:10:03.608Z,92.32
2018-06-19T01:13:06.708Z,91.86
2018-06-19T01:16:09.767Z,92.97
2018-06-19T01:19:12.909Z,93.14
2018-06-19T01:22:15.941Z,92.24
2018-06-19T01:25:19.083Z,92.11
2018-06-19T01:28:22.393Z,92.29
2018-06-19T01:31:25.367Z,92.28
2018-06-19T01:34:28.489Z,92.54
2018-06-19T01:37:31.810Z,92.97
2018-06-19T01:40:34.872Z,93.07
2018-06-19T01:43:38.178Z,93.13
2018-06-19T01:46:41.348Z,92.87
2018-06-19T01:49:44.431Z,93.79
2018-06-19T01:52:47.575Z,93.00
2018-06-19T01:55:50.767Z,93.16
2018-06-19T01:58:53.805Z,93.92
2018-06-19T02:01:56.966Z,93.93
2018-06-19T02:05:00.004Z,93.72
2018-06-19T02:08:03.169Z,94.38
2018-06-19T02:11:06.175Z,94.20
2018-06-19T02:14:09.407Z,94.79
2018-06-19T02:17:12.580Z,94.79
2018-06-19T02:20:15.582Z,94.45
2018-06-19T02:23:18.712Z,94.35
2018-06-19T02:26:21.754Z,94.30
2018-06-19T02:29:24.928Z,94.83
2018-06-19T02:32:28.082Z,94.71
2018-06-19T02:35:31.259Z,94.50
2018-06-19T02:38:34.414Z,95.38
2018-06-19T02:41:37.500Z,94.89
2018-06-19T02:44:40.550Z,95.10
2018-06-19T02:47:43.750Z,94.73
2018-06-19T02:50:46.862Z,94.80
2018-06-19T02:53:50.806Z,94.95
2018-06-19T02:56:53.932Z,95.18
2018-06-19T02:59:56.986Z,95.31
2018-06-19T03:03:00.101Z,95.08
2018-06-19T03:06:03.155Z,95.52
2018-06-19T03:09:08.654Z,95.44
2018-06-19T03:12:11.640Z,95.17
2018-06-19T03:15:14.738Z,95.23
2018-06-19T03:18:17.826Z,95.62
2018-06-19T03:21:20.881Z,95.43
2018-06-19T03:24:24.050Z,94.96
2018-06-19T03:27:27.153Z,96.08
2018-06-19T03:30:30.470Z,95.34
2018-06-19T03:33:33.444Z,95.57
2018-06-19T03:36:36.618Z,95.97
2018-06-19T03:39:39.723Z,96.02
2018-06-19T03:42:42.835Z,95.89
2018-06-19T03:45:45.925Z,95.24
2018-06-19T03:48:48.924Z,95.04
2018-06-19T03:51:52.054Z,93.98
2018-06-19T03:54:55.233Z,94.16
2018-06-19T03:57:58.323Z,93.69
2018-06-19T04:01:01.403Z,85.00
2018-06-19T04:04:04.942Z,74.39
2018-06-19T04:07:08.210Z,70.34
2018-06-19T04:10:11.276Z,66.48
2018-06-19T04:13:14.599Z,64.04
2018-06-19T04:16:17.670Z,60.53
2018-06-19T04:19:20.832Z,59.41
2018-06-19T04:22:24.646Z,57.20
2018-06-19T04:25:27.732Z,54.78
2018-06-19T04:28:30.908Z,58.98
2018-06-19T04:31:33.922Z,58.49
2018-06-19T04:34:37.988Z,59.28
2018-06-19T04:37:41.078Z,61.24
2018-06-19T04:40:44.051Z,61.12
2018-06-19T04:43:47.037Z,58.26
2018-06-19T04:46:50.206Z,58.91
2018-06-19T04:49:53.237Z,59.21
2018-06-19T04:52:56.427Z,58.16
2018-06-19T04:55:59.470Z,58.23
2018-06-19T04:59:02.517Z,58.70
2018-06-19T05:02:05.739Z,61.36
2018-06-19T05:05:08.958Z,61.50
2018-06-19T05:08:12.261Z,60.60
2018-06-19T05:11:15.276Z,56.16
2018-06-19T05:14:18.392Z,53.41
2018-06-19T05:17:21.434Z,55.15
2018-06-19T05:20:24.491Z,56.50
2018-06-19T05:23:27.698Z,56.80
2018-06-19T05:26:30.800Z,57.60
2018-06-19T05:29:33.903Z,55.71
2018-06-19T05:32:37.051Z,58.91
2018-06-19T05:35:40.226Z,55.63
2018-06-19T05:38:43.239Z,54.22
2018-06-19T05:41:46.249Z,53.83
2018-06-19T05:44:49.407Z,54.69
2018-06-19T05:47:52.523Z,48.20
2018-06-19T05:50:55.609Z,48.74
2018-06-19T05:53:59.107Z,46.55
2018-06-19T05:57:02.670Z,49.40
2018-06-19T06:00:05.819Z,54.40
2018-06-19T06:03:08.874Z,55.80
2018-06-19T06:06:12.030Z,57.43
2018-06-19T06:09:15.080Z,57.07
2018-06-19T06:12:18.292Z,54.62
2018-06-19T06:15:21.384Z,57.17
2018-06-19T06:18:30.882Z,55.64
2018-06-19T06:21:34.131Z,55.20
2018-06-19T06:24:37.212Z,53.71
2018-06-19T06:27:40.660Z,53.86
2018-06-19T06:30:44.746Z,61.39
2018-06-19T06:33:47.892Z,67.46
2018-06-19T06:36:51.061Z,69.86
2018-06-19T06:39:54.566Z,65.84
2018-06-19T06:42:57.779Z,66.37
2018-06-19T06:48:47.340Z,67.58
2018-06-19T06:51:50.445Z,66.82
2018-06-19T06:54:53.594Z,67.25
2018-06-19T06:57:57.820Z,68.25
2018-06-19T07:01:01.077Z,70.13
2018-06-19T07:04:04.220Z,68.03
2018-06-19T07:07:07.323Z,68.80
2018-06-19T07:10:10.541Z,68.65
2018-06-19T07:13:13.718Z,68.36
2018-06-19T07:16:16.872Z,70.71
2018-06-19T07:19:20.119Z,70.61
2018-06-19T07:22:23.273Z,70.17
2018-06-19T07:25:26.896Z,61.76
2018-06-19T07:28:30.062Z,57.24
2018-06-19T07:31:33.203Z,51.51
2018-06-19T07:34:36.248Z,54.57
2018-06-19T07:37:39.467Z,58.10
2018-06-19T07:40:42.670Z,59.84
2018-06-19T07:43:45.970Z,61.50
2018-06-19T07:46:49.242Z,61.45
2018-06-19T07:49:52.430Z,61.70
2018-06-19T07:52:56.483Z,63.20
2018-06-19T07:55:59.578Z,65.24
2018-06-19T07:59:02.967Z,65.69
2018-06-19T08:02:06.243Z,66.20
2018-06-19T08:05:10.243Z,67.20
2018-06-19T08:08:13.263Z,68.12
2018-06-19T08:11:16.359Z,69.14
2018-06-19T08:14:19.683Z,69.12
2018-06-19T08:17:22.825Z,66.96
2018-06-19T08:20:25.853Z,66.57
2018-06-19T08:23:29.091Z,65.71
2018-06-19T08:26:32.309Z,64.38
2018-06-19T08:29:35.612Z,64.10
2018-06-19T08:32:38.679Z,65.06
2018-06-19T08:35:41.809Z,63.56
2018-06-19T08:38:44.762Z,66.03
2018-06-19T08:41:47.894Z,66.88
2018-06-19T08:44:50.982Z,66.74
2018-06-19T08:47:54.074Z,66.84
2018-06-19T08:50:57.201Z,61.96
2018-06-19T08:54:00.238Z,59.02
2018-06-19T08:57:03.549Z,60.21
2018-06-19T09:00:06.750Z,61.76
2018-06-19T09:03:10.477Z,61.73
2018-06-19T09:06:13.672Z,62.13
2018-06-19T09:09:16.822Z,60.04
2018-06-19T09:12:20.023Z,55.33
2018-06-19T09:15:23.390Z,56.61
2018-06-19T09:18:26.624Z,54.97
2018-06-19T09:21:29.779Z,54.22
2018-06-19T09:24:32.896Z,51.46
2018-06-19T09:27:36.075Z,46.86
2018-06-19T09:30:39.332Z,51.55
2018-06-19T09:33:42.479Z,49.77
2018-06-19T09:36:45.727Z,50.97
2018-06-19T09:39:48.855Z,49.95
2018-06-19T09:42:51.850Z,50.21
2018-06-19T09:45:54.930Z,53.37
2018-06-19T09:48:58.179Z,50.79
2018-06-19T09:52:01.549Z,48.31
2018-06-19T09:55:04.965Z,50.12
2018-06-19T09:58:08.198Z,53.56
2018-06-19T10:01:11.309Z,54.34
2018-06-19T10:04:14.478Z,53.92
2018-06-19T10:07:21.170Z,54.42
2018-06-19T10:10:24.306Z,53.25
2018-06-19T10:13:27.408Z,53.29
2018-06-19T10:16:31.630Z,50.18
2018-06-19T10:19:34.852Z,50.69
2018-06-19T10:22:37.816Z,49.11
2018-06-19T10:25:41.152Z,51.49
2018-06-19T10:28:44.330Z,55.34
2018-06-19T10:31:47.495Z,56.74
2018-06-19T10:34:50.691Z,58.77
2018-06-19T10:37:53.891Z,58.31
2018-06-19T10:40:57.753Z,56.52
2018-06-19T10:44:00.854Z,58.68
2018-06-19T10:47:04.301Z,55.94
2018-06-19T10:50:07.447Z,54.48
2018-06-19T10:53:10.479Z,55.69
2018-06-19T10:56:13.580Z,56.89
2018-06-19T10:59:16.704Z,55.46
2018-06-19T11:02:19.835Z,54.60
2018-06-19T11:05:22.995Z,55.51
2018-06-19T11:08:29.805Z,52.92
2018-06-19T11:11:33.099Z,53.95
2018-06-19T11:14:36.399Z,53.45
2018-06-19T11:17:39.532Z,54.69
2018-06-19T11:20:42.801Z,58.21
2018-06-19T11:23:45.927Z,60.24
2018-06-19T11:26:49.084Z,62.13
2018-06-19T11:29:52.187Z,64.67
2018-06-19T11:32:55.347Z,66.55
2018-06-19T11:35:58.291Z,67.01
2018-06-19T11:39:01.463Z,66.34
2018-06-19T11:42:05.398Z,64.29
2018-06-19T11:45:08.711Z,63.19
2018-06-19T11:48:11.762Z,63.00
2018-06-19T11:51:15.061Z,61.42
2018-06-19T11:54:18.149Z,62.03
2018-06-19T11:57:21.193Z,60.58
2018-06-19T12:00:24.163Z,59.73
2018-06-19T12:03:27.166Z,61.02
2018-06-19T12:06:30.129Z,59.89
2018-06-19T12:09:33.190Z,60.54
2018-06-19T12:12:36.404Z,59.94
2018-06-19T12:15:39.617Z,58.97
2018-06-19T12:18:42.809Z,58.29
2018-06-19T12:21:45.854Z,57.93
2018-06-19T12:24:48.954Z,56.23
2018-06-19T12:27:52.049Z,57.54
2018-06-19T12:30:55.291Z,58.21
2018-06-19T12:33:58.409Z,59.18
2018-06-19T12:37:02.613Z,60.59
2018-06-19T12:40:05.828Z,60.51
2018-06-19T12:43:08.934Z,61.85
2018-06-19T12:46:11.991Z,60.99
2018-06-19T12:49:25.855Z,61.66
2018-06-19T12:52:43.837Z,61.77
2018-06-19T12:56:04.100Z,60.85
2018-06-19T12:59:07.165Z,60.84
2018-06-19T13:02:10.329Z,59.38
2018-06-19T13:05:30.598Z,59.33
2018-06-19T13:08:33.790Z,60.04
2018-06-19T13:11:36.968Z,59.14
2018-06-19T13:14:40.198Z,59.42
2018-06-19T13:18:01.602Z,58.85
2018-06-19T13:21:04.789Z,58.41
2018-06-19T13:24:07.882Z,59.06
2018-06-19T13:27:10.835Z,57.58
2018-06-19T13:30:25.319Z,57.60
2018-06-19T13:33:28.356Z,58.41
2018-06-19T13:36:32.450Z,58.56
2018-06-19T13:39:37.442Z,59.18
2018-06-19T13:42:52.832Z,60.26
2018-06-19T13:45:56.948Z,59.68
2018-06-19T13:49:00.126Z,60.90
2018-06-19T13:52:04.480Z,60.50
2018-06-19T13:57:55.444Z,62.93
2018-06-19T14:00:58.631Z,60.27
2018-06-19T14:04:01.919Z,61.49
2018-06-19T14:07:05.611Z,60.83
2018-06-19T14:10:30.759Z,61.00
2018-06-19T14:13:35.838Z,60.03
2018-06-19T14:16:42.228Z,59.75
2018-06-19T14:19:45.270Z,60.98
2018-06-19T14:22:48.409Z,58.42
2018-06-19T14:25:51.396Z,56.11
2018-06-19T14:28:54.507Z,56.94
2018-06-19T14:31:58.900Z,53.34
2018-06-19T14:35:04.151Z,54.36
2018-06-19T14:38:07.256Z,54.05
2018-06-19T14:41:10.340Z,54.43
2018-06-19T14:44:13.343Z,55.51
2018-06-19T14:47:16.402Z,55.68
2018-06-19T14:50:19.544Z,56.80
2018-06-19T14:53:22.522Z,57.55
2018-06-19T14:56:25.609Z,57.30
2018-06-19T14:59:29.634Z,56.46
2018-06-19T15:02:33.660Z,54.12
2018-06-19T15:05:36.611Z,55.37
2018-06-19T15:08:39.580Z,53.26
2018-06-19T15:11:42.692Z,50.83
2018-06-19T15:14:45.766Z,53.02
2018-06-19T15:17:49.833Z,53.84
2018-06-19T15:20:52.912Z,57.23
2018-06-19T15:23:57.008Z,58.90
2018-06-19T15:27:04.416Z,57.14
2018-06-19T15:30:07.445Z,58.45
2018-06-19T15:33:10.443Z,58.98
2018-06-19T15:36:16.658Z,58.54
2018-06-19T15:39:19.866Z,60.04
2018-06-19T15:42:22.948Z,57.84
2018-06-19T15:45:25.972Z,57.21
2018-06-19T15:48:30.123Z,57.01
2018-06-19T15:51:33.602Z,53.09
2018-06-19T15:54:36.723Z,50.43
2018-06-19T15:57:39.810Z,48.34
2018-06-19T16:00:44.990Z,47.05
2018-06-19T16:03:48.251Z,47.52
2018-06-19T16:06:51.343Z,49.64
2018-06-19T16:09:54.484Z,47.61
2018-06-19T16:12:57.561Z,49.28
2018-06-19T16:16:00.754Z,50.95
2018-06-19T16:19:04.189Z,50.17
2018-06-19T16:22:08.344Z,50.00
2018-06-19T16:25:11.401Z,49.81
2018-06-19T16:28:14.417Z,48.92
2018-06-19T16:31:17.517Z,49.17
2018-06-19T16:34:21.645Z,47.90
2018-06-19T16:37:24.781Z,46.76
2018-06-19T16:40:29.982Z,47.39
2018-06-19T16:43:34.138Z,46.54
2018-06-19T16:46:38.253Z,47.82
2018-06-19T16:49:42.375Z,50.98
2018-06-19T16:52:45.566Z,50.10
2018-06-19T16:55:48.623Z,48.86
2018-06-19T16:58:51.727Z,49.84
2018-06-19T17:01:56.035Z,47.28
2018-06-19T17:04:59.228Z,46.88
2018-06-19T17:08:03.395Z,45.79
2018-06-19T17:11:06.561Z,44.25
2018-06-19T17:14:09.703Z,52.15
2018-06-19T17:17:12.901Z,52.33
2018-06-19T17:20:16.970Z,52.66
2018-06-19T17:23:20.617Z,58.35
2018-06-19T17:26:23.670Z,59.95
2018-06-19T17:29:26.928Z,61.56
2018-06-19T17:32:30.153Z,61.90
2018-06-19T17:35:33.260Z,63.05
2018-06-19T17:38:36.378Z,64.30
2018-06-19T17:41:39.462Z,65.41
2018-06-19T17:44:42.528Z,66.30
2018-06-19T17:47:45.673Z,67.50
2018-06-19T17:50:48.827Z,67.85
2018-06-19T17:53:51.919Z,67.21
2018-06-19T17:56:54.990Z,67.35
2018-06-19T17:59:58.050Z,67.98
2018-06-19T18:03:01.246Z,66.85
2018-06-19T18:06:04.368Z,64.79
2018-06-19T18:09:09.449Z,62.85
2018-06-19T18:12:12.646Z,62.31
2018-06-19T18:15:15.749Z,62.05
2018-06-19T18:18:18.912Z,63.34
2018-06-19T18:21:23.045Z,63.74
2018-06-19T18:24:26.239Z,65.33
2018-06-19T18:27:29.270Z,65.82
2018-06-19T18:30:32.575Z,66.02
2018-06-19T18:33:36.053Z,67.33
2018-06-19T18:36:39.159Z,68.43
2018-06-19T18:39:42.387Z,68.94
2018-06-19T18:42:45.466Z,68.93
2018-06-19T18:45:48.716Z,69.42
2018-06-19T18:48:51.848Z,70.69
2018-06-19T18:51:55.133Z,71.72
2018-06-19T18:54:58.408Z,73.73
2018-06-19T18:58:01.602Z,74.67
2018-06-19T19:01:05.838Z,74.45
2018-06-19T19:04:08.984Z,76.46
2018-06-19T19:07:12.329Z,77.02
2018-06-19T19:10:21.111Z,79.04
2018-06-19T19:13:26.012Z,79.43
2018-06-19T19:16:34.779Z,81.08
2018-06-19T19:19:37.952Z,81.60
2018-06-19T19:22:41.135Z,81.38
2018-06-19T19:25:44.277Z,82.92
2018-06-19T19:28:53.059Z,83.22
2018-06-19T19:31:56.149Z,84.34
2018-06-19T19:34:59.183Z,84.27
2018-06-19T19:38:07.803Z,84.89
2018-06-19T19:41:10.928Z,84.80
2018-06-19T19:44:14.222Z,84.62
2018-06-19T19:47:22.841Z,85.52
2018-06-19T19:50:25.899Z,85.35
2018-06-19T19:53:28.990Z,86.08
2018-06-19T19:56:37.597Z,85.92
2018-06-19T19:59:40.668Z,86.97
2018-06-19T20:02:43.797Z,87.65
2018-06-19T20:05:46.925Z,88.25
2018-06-19T20:08:49.944Z,87.48
2018-06-19T20:11:53.072Z,88.05
2018-06-19T20:14:56.164Z,88.39
2018-06-19T20:17:59.341Z,87.94
2018-06-19T20:21:02.462Z,88.17
2018-06-19T20:24:05.629Z,87.49
2018-06-19T20:27:08.807Z,87.96
2018-06-19T20:30:11.991Z,87.74
2018-06-19T20:33:15.276Z,87.35
2018-06-19T20:36:18.328Z,87.89
2018-06-19T20:39:22.532Z,87.69
2018-06-19T20:42:27.558Z,87.16
2018-06-19T20:45:30.614Z,87.27
2018-06-19T20:48:33.738Z,87.78
2018-06-19T20:51:36.841Z,87.64
2018-06-19T20:54:39.874Z,88.02
2018-06-19T20:57:42.930Z,87.82
2018-06-19T21:00:45.983Z,89.14
2018-06-19T21:03:49.057Z,89.47
2018-06-19T21:06:52.116Z,88.57
2018-06-19T21:09:55.146Z,87.87
2018-06-19T21:13:01.154Z,86.93
2018-06-19T21:16:04.237Z,86.75
2018-06-19T21:19:07.349Z,87.19
2018-06-19T21:22:10.433Z,87.50
2018-06-19T21:25:13.564Z,86.95
2018-06-19T21:28:16.670Z,87.25
2018-06-19T21:31:19.982Z,87.34
2018-06-19T21:34:23.293Z,88.07
2018-06-19T21:37:26.977Z,87.88
2018-06-19T21:40:30.121Z,87.99
2018-06-19T21:43:33.133Z,87.86
2018-06-19T21:46:36.516Z,87.56
2018-06-19T21:49:41.594Z,88.48
2018-06-19T21:52:44.628Z,88.34
2018-06-19T21:55:49.213Z,88.25
2018-06-19T21:58:52.596Z,88.22
2018-06-19T22:01:55.730Z,87.95
2018-06-19T22:05:00.139Z,87.20
2018-06-19T22:08:03.425Z,87.80
2018-06-19T22:11:07.572Z,87.94
2018-06-19T22:14:11.158Z,87.80
2018-06-19T22:17:14.254Z,88.27
2018-06-19T22:20:17.321Z,87.96
2018-06-19T22:23:20.567Z,88.11
2018-06-19T22:26:23.619Z,88.37
2018-06-19T22:29:26.752Z,87.14
2018-06-19T22:32:31.883Z,87.29
2018-06-19T22:35:35.787Z,86.73
2018-06-19T22:38:39.293Z,87.35
2018-06-19T22:41:43.181Z,87.02
2018-06-19T22:44:46.798Z,86.92
2018-06-19T22:47:51.221Z,87.00
2018-06-19T22:50:55.221Z,86.67
2018-06-19T22:53:59.255Z,86.20
2018-06-19T22:57:05.254Z,87.30
2018-06-19T23:00:09.405Z,86.59
2018-06-19T23:03:13.163Z,87.17
2018-06-19T23:06:16.924Z,88.88
2018-06-19T23:09:23.476Z,90.07
2018-06-19T23:12:28.402Z,91.30
2018-06-19T23:15:32.683Z,91.58
2018-06-19T23:18:37.992Z,91.27
2018-06-19T23:21:41.770Z,90.60
2018-06-19T23:24:45.795Z,90.20
2018-06-19T23:27:51.479Z,90.40
2018-06-19T23:30:55.930Z,90.50
2018-06-19T23:34:02.039Z,89.69
2018-06-19T23:37:06.879Z,89.88
2018-06-19T23:40:11.529Z,90.09
2018-06-19T23:43:16.893Z,89.68
2018-06-19T23:46:20.837Z,88.80
2018-06-19T23:49:23.960Z,88.86
2018-06-19T23:52:27.090Z,88.68
2018-06-19T23:55:30.167Z,88.68
2018-06-19T23:58:33.210Z,88.98
